Time,TemperatureF,DewpointF,PressureIn,WindDirection,WindDirectionDegrees,WindSpeedMPH,WindSpeedGustMPH,Humidity,HourlyPrecipIn,Conditions,Clouds,dailyrainin,SolarRadiationWatts/m^2,SoftwareType,DateUTC
2013-06-18 00:00:00,69.4,67.0,30.03,South,183,4.0,10.0,92,0.02,,SCT,0.00,0.00,VWS V14.01,2013-06-18 04:00:00,
2013-06-18 00:01:00,69.3,67.2,30.02,South,183,1.0,5.0,93,0.01,,SCT,0.00,0.00,VWS V14.01,2013-06-18 04:01:00,
2013-06-18 00:06:00,69.1,67.0,30.01,South,183,0.0,5.0,93,0.01,,SCT,0.00,0.00,VWS V14.01,2013-06-18 04:06:00,
2013-06-18 00:11:00,69.0,67.2,30.01,WNW,284,3.0,5.0,94,0.03,,SCT,0.02,0.00,VWS V14.01,2013-06-18 04:11:00,
2013-06-18 00:16:00,68.8,67.0,30.00,WNW,293,3.0,5.0,94,0.04,,SCT,0.03,0.00,VWS V14.01,2013-06-18 04:16:00,
2013-06-18 00:21:00,68.7,66.9,30.00,WNW,293,2.0,5.0,94,0.04,,SCT,0.03,0.00,VWS V14.01,2013-06-18 04:21:00,
2013-06-18 00:26:00,68.8,67.3,30.00,SSE,165,4.0,5.0,95,0.04,,SCT,0.03,0.00,VWS V14.01,2013-06-18 04:26:00,
2013-06-18 00:31:00,68.8,67.3,29.99,SSW,213,9.0,9.0,95,0.04,,SCT,0.03,0.00,VWS V14.01,2013-06-18 04:31:00,
2013-06-18 00:36:00,68.7,67.2,29.99,South,178,7.0,10.0,95,0.05,,SCT,0.04,0.00,VWS V14.01,2013-06-18 04:36:00,
2013-06-18 00:41:00,68.5,67.0,30.02,SE,130,5.0,16.0,95,0.05,,SCT,0.04,0.00,VWS V14.01,2013-06-18 04:41:00,
2013-06-18 00:46:00,68.1,66.6,30.01,SSW,207,3.0,16.0,95,0.05,,SCT,0.04,0.00,VWS V14.01,2013-06-18 04:46:00,
2013-06-18 00:51:00,67.8,66.3,30.00,SSW,207,2.0,16.0,95,0.05,,SCT,0.04,0.00,VWS V14.01,2013-06-18 04:51:00,
2013-06-18 00:56:00,67.6,66.1,30.00,South,190,0.0,4.0,95,0.04,,SCT,0.04,0.00,VWS V14.01,2013-06-18 04:56:00,
2013-06-18 01:00:00,67.7,66.2,30.00,SSW,207,0.0,16.0,95,0.05,,SCT,0.04,0.00,VWS V14.01,2013-06-18 05:00:00,
2013-06-18 01:01:00,67.3,65.8,30.00,South,190,0.0,4.0,95,0.05,,SCT,0.05,0.00,VWS V14.01,2013-06-18 05:01:00,
2013-06-18 01:06:00,67.3,65.8,30.00,South,190,2.0,4.0,95,0.05,,SCT,0.05,0.00,VWS V14.01,2013-06-18 05:06:00,
2013-06-18 01:11:00,67.3,65.8,30.00,South,190,1.0,4.0,95,0.05,,SCT,0.05,0.00,VWS V14.01,2013-06-18 05:11:00,
2013-06-18 01:16:00,67.3,66.1,30.00,South,190,0.0,4.0,96,0.05,,SCT,0.05,0.00,VWS V14.01,2013-06-18 05:16:00,
2013-06-18 01:21:00,67.2,66.0,30.00,South,190,0.0,4.0,96,0.05,,SCT,0.05,0.00,VWS V14.01,2013-06-18 05:21:00,
2013-06-18 01:26:00,67.2,66.0,29.99,West,272,3.0,4.0,96,0.05,,SCT,0.05,0.00,VWS V14.01,2013-06-18 05:26:00,
2013-06-18 01:31:00,67.1,65.9,29.99,West,280,2.0,5.0,96,0.05,,SCT,0.05,0.00,VWS V14.01,2013-06-18 05:31:00,
2013-06-18 01:36:00,67.1,65.9,29.99,West,280,2.0,5.0,96,0.05,,SCT,0.05,0.00,VWS V14.01,2013-06-18 05:36:00,
2013-06-18 01:41:00,67.0,65.8,29.98,West,280,3.0,5.0,96,0.05,,SCT,0.05,0.00,VWS V14.01,2013-06-18 05:41:00,
2013-06-18 01:46:00,67.1,65.9,29.97,West,280,2.0,5.0,96,0.05,,SCT,0.05,0.00,VWS V14.01,2013-06-18 05:46:00,
2013-06-18 01:51:00,67.4,65.9,29.97,WSW,249,0.0,5.0,95,0.05,,SCT,0.05,0.00,VWS V14.01,2013-06-18 05:51:00,
2013-06-18 01:56:00,67.6,66.1,29.97,WSW,249,0.0,1.0,95,0.01,,SCT,0.05,0.00,VWS V14.01,2013-06-18 05:56:00,
2013-06-18 02:00:00,67.5,66.0,29.97,WSW,249,0.0,5.0,95,0.05,,SCT,0.05,0.00,VWS V14.01,2013-06-18 06:00:00,
2013-06-18 02:01:00,67.9,66.4,29.97,WNW,283,3.0,6.0,95,0.01,,SCT,0.05,0.00,VWS V14.01,2013-06-18 06:01:00,
2013-06-18 02:06:00,68.2,66.4,29.98,WNW,283,0.0,6.0,94,0.01,,SCT,0.05,0.00,VWS V14.01,2013-06-18 06:06:00,
2013-06-18 02:11:00,68.3,66.5,29.98,WNW,282,0.0,6.0,94,0.01,,SCT,0.05,0.00,VWS V14.01,2013-06-18 06:11:00,
2013-06-18 02:16:00,68.1,66.3,29.98,WNW,282,0.0,6.0,94,0.01,,SCT,0.05,0.00,VWS V14.01,2013-06-18 06:16:00,
2013-06-18 02:21:00,67.9,66.1,29.98,WNW,282,0.0,6.0,94,0.01,,SCT,0.05,0.00,VWS V14.01,2013-06-18 06:21:00,
2013-06-18 02:26:00,67.7,66.2,29.97,WNW,282,3.0,6.0,95,0.01,,SCT,0.05,0.00,VWS V14.01,2013-06-18 06:26:00,
2013-06-18 02:31:00,67.7,66.2,29.97,WNW,282,0.0,6.0,95,0.01,,SCT,0.05,0.00,VWS V14.01,2013-06-18 06:31:00,
2013-06-18 02:36:00,67.9,66.7,29.97,WNW,282,2.0,6.0,96,0.01,,SCT,0.05,0.00,VWS V14.01,2013-06-18 06:36:00,
2013-06-18 02:41:00,68.0,66.5,29.97,WNW,282,0.0,6.0,95,0.01,,SCT,0.05,0.00,VWS V14.01,2013-06-18 06:41:00,
2013-06-18 02:46:00,67.9,66.4,29.97,WNW,283,0.0,6.0,95,0.01,,SCT,0.05,0.00,VWS V14.01,2013-06-18 06:46:00,
2013-06-18 02:51:00,67.7,66.5,29.97,WNW,282,0.0,6.0,96,0.01,,SCT,0.05,0.00,VWS V14.01,2013-06-18 06:51:00,
2013-06-18 02:56:00,67.7,66.5,29.97,WNW,282,2.0,3.0,96,0.00,,SCT,0.05,0.00,VWS V14.01,2013-06-18 06:56:00,
2013-06-18 03:00:00,67.7,66.5,29.97,WNW,282,2.0,6.0,96,0.01,,SCT,0.05,0.00,VWS V14.01,2013-06-18 07:00:00,
2013-06-18 03:01:00,68.0,66.8,29.97,NW,305,0.0,4.0,96,0.00,,SCT,0.05,0.00,VWS V14.01,2013-06-18 07:01:00,
2013-06-18 03:06:00,67.9,66.4,29.97,NW,305,2.0,4.0,95,0.00,,SCT,0.05,0.00,VWS V14.01,2013-06-18 07:06:00,
2013-06-18 03:11:00,67.8,66.6,29.97,NW,311,0.0,4.0,96,0.00,,SCT,0.05,0.00,VWS V14.01,2013-06-18 07:11:00,
2013-06-18 03:16:00,67.7,66.5,29.97,NW,311,0.0,4.0,96,0.00,,SCT,0.05,0.00,VWS V14.01,2013-06-18 07:16:00,
2013-06-18 03:21:00,67.7,66.5,29.97,NW,311,0.0,4.0,96,0.00,,SCT,0.05,0.00,VWS V14.01,2013-06-18 07:21:00,
2013-06-18 03:26:00,67.7,66.5,29.97,NW,311,2.0,4.0,96,0.00,,SCT,0.05,0.00,VWS V14.01,2013-06-18 07:26:00,
2013-06-18 03:31:00,67.6,66.4,29.96,NW,311,0.0,4.0,96,0.00,,SCT,0.05,0.00,VWS V14.01,2013-06-18 07:31:00,
2013-06-18 03:36:00,67.6,66.4,29.96,NNW,344,4.0,4.0,96,0.00,,SCT,0.05,0.00,VWS V14.01,2013-06-18 07:36:00,
2013-06-18 03:41:00,67.7,66.5,29.96,NNE,32,2.0,5.0,96,0.00,,SCT,0.05,0.00,VWS V14.01,2013-06-18 07:41:00,
2013-06-18 03:46:00,67.8,66.6,29.95,NNE,33,3.0,5.0,96,0.00,,SCT,0.05,0.00,VWS V14.01,2013-06-18 07:46:00,
2013-06-18 03:51:00,67.7,66.5,29.95,NNE,33,0.0,5.0,96,0.00,,SCT,0.05,0.00,VWS V14.01,2013-06-18 07:51:00,
2013-06-18 03:56:00,67.7,66.5,29.95,NNE,33,0.0,0.0,96,0.00,,SCT,0.05,0.00,VWS V14.01,2013-06-18 07:56:00,
2013-06-18 04:00:00,67.8,66.6,29.95,NNE,33,0.0,5.0,96,0.00,,SCT,0.05,0.00,VWS V14.01,2013-06-18 08:00:00,
2013-06-18 04:01:00,67.6,66.4,29.95,NNE,33,0.0,2.0,96,0.00,,SCT,0.05,0.00,VWS V14.01,2013-06-18 08:01:00,
2013-06-18 04:06:00,67.4,66.2,29.95,NNE,33,0.0,2.0,96,0.00,,SCT,0.05,0.00,VWS V14.01,2013-06-18 08:06:00,
2013-06-18 04:11:00,67.3,66.1,29.95,NNE,33,0.0,2.0,96,0.00,,SCT,0.05,0.00,VWS V14.01,2013-06-18 08:11:00,
2013-06-18 04:16:00,67.2,66.0,29.95,NNE,33,1.0,4.0,96,0.00,,SCT,0.05,0.00,VWS V14.01,2013-06-18 08:16:00,
2013-06-18 04:21:00,67.2,66.0,29.95,NNE,33,0.0,4.0,96,0.00,,SCT,0.05,0.00,VWS V14.01,2013-06-18 08:21:00,
2013-06-18 04:26:00,67.1,66.2,29.95,NNE,33,1.0,4.0,97,0.00,,SCT,0.05,0.00,VWS V14.01,2013-06-18 08:26:00,
2013-06-18 04:31:00,67.2,66.3,29.95,NNE,33,0.0,4.0,97,0.00,,SCT,0.05,0.00,VWS V14.01,2013-06-18 08:31:00,
2013-06-18 04:36:00,67.2,66.3,29.95,NNE,33,0.0,4.0,97,0.00,,SCT,0.05,0.00,VWS V14.01,2013-06-18 08:36:00,
2013-06-18 04:41:00,67.1,66.2,29.95,NNE,33,0.0,4.0,97,0.00,,SCT,0.05,0.00,VWS V14.01,2013-06-18 08:41:00,
2013-06-18 04:46:00,67.1,66.2,29.94,NNE,33,0.0,4.0,97,0.00,,SCT,0.05,0.00,VWS V14.01,2013-06-18 08:46:00,
2013-06-18 04:51:00,67.1,66.2,29.94,NNE,33,0.0,4.0,97,0.00,,SCT,0.05,0.00,VWS V14.01,2013-06-18 08:51:00,
2013-06-18 04:56:00,67.1,66.2,29.94,NNE,33,0.0,0.0,97,0.00,,SCT,0.05,0.00,VWS V14.01,2013-06-18 08:56:00,
2013-06-18 05:00:00,67.1,66.2,29.94,NNE,33,0.0,4.0,97,0.00,,SCT,0.05,0.00,VWS V14.01,2013-06-18 09:00:00,
2013-06-18 05:01:00,67.2,66.3,29.94,NNE,33,0.0,2.0,97,0.00,,SCT,0.05,0.00,VWS V14.01,2013-06-18 09:01:00,
2013-06-18 05:06:00,67.3,66.4,29.95,NNE,33,0.0,2.0,97,0.00,,SCT,0.05,0.00,VWS V14.01,2013-06-18 09:06:00,
2013-06-18 05:11:00,67.4,66.5,29.95,NNE,33,0.0,2.0,97,0.00,,SCT,0.05,0.00,VWS V14.01,2013-06-18 09:11:00,
2013-06-18 05:16:00,67.5,66.6,29.95,NNE,33,0.0,2.0,97,0.00,,SCT,0.05,0.00,VWS V14.01,2013-06-18 09:16:00,
2013-06-18 05:21:00,67.6,66.7,29.95,NNE,33,2.0,2.0,97,0.00,,SCT,0.05,0.00,VWS V14.01,2013-06-18 09:21:00,
2013-06-18 05:26:00,67.4,66.5,29.95,NNE,33,0.0,3.0,97,0.00,,SCT,0.05,0.00,VWS V14.01,2013-06-18 09:26:00,
2013-06-18 05:31:00,67.6,66.7,29.95,NNE,33,0.0,3.0,97,0.00,,SCT,0.05,0.00,VWS V14.01,2013-06-18 09:31:00,
2013-06-18 05:36:00,67.6,66.7,29.95,NNE,33,0.0,3.0,97,0.00,,SCT,0.05,0.00,VWS V14.01,2013-06-18 09:36:00,
2013-06-18 05:41:00,67.5,66.6,29.95,NNE,33,0.0,3.0,97,0.00,,SCT,0.05,0.00,VWS V14.01,2013-06-18 09:41:00,
2013-06-18 05:46:00,67.4,66.5,29.95,NNE,33,0.0,3.0,97,0.00,,SCT,0.05,0.00,VWS V14.01,2013-06-18 09:46:00,
2013-06-18 05:51:00,67.5,66.6,29.95,NNE,33,0.0,3.0,97,0.00,,SCT,0.05,0.00,VWS V14.01,2013-06-18 09:51:00,
2013-06-18 05:56:00,67.6,66.7,29.95,NNE,33,0.0,2.0,97,0.00,,SCT,0.05,0.00,VWS V14.01,2013-06-18 09:56:00,
2013-06-18 06:00:00,67.6,66.7,29.95,NNE,33,0.0,3.0,97,0.00,,SCT,0.05,0.00,VWS V14.01,2013-06-18 10:00:00,
2013-06-18 06:01:00,67.4,66.5,29.95,NNE,33,0.0,2.0,97,0.00,,SCT,0.05,0.00,VWS V14.01,2013-06-18 10:01:00,
2013-06-18 06:06:00,67.5,66.6,29.95,NNE,33,0.0,2.0,97,0.00,,SCT,0.05,0.00,VWS V14.01,2013-06-18 10:06:00,
2013-06-18 06:11:00,67.5,66.6,29.95,NNE,33,0.0,2.0,97,0.00,,SCT,0.05,0.00,VWS V14.01,2013-06-18 10:11:00,
2013-06-18 06:16:00,67.6,66.7,29.95,NNE,33,0.0,2.0,97,0.00,,SCT,0.05,5.00,VWS V14.01,2013-06-18 10:16:00,
2013-06-18 06:21:00,67.7,66.8,29.96,NNE,33,0.0,2.0,97,0.00,,SCT,0.05,7.00,VWS V14.01,2013-06-18 10:21:00,
2013-06-18 06:26:00,67.7,66.8,29.96,NNE,33,2.0,2.0,97,0.00,,SCT,0.05,11.00,VWS V14.01,2013-06-18 10:26:00,
2013-06-18 06:31:00,67.7,66.8,29.96,NNE,33,3.0,3.0,97,0.00,,SCT,0.05,18.00,VWS V14.01,2013-06-18 10:31:00,
2013-06-18 06:36:00,67.7,66.8,29.96,NNE,33,0.0,3.0,97,0.00,,SCT,0.05,25.00,VWS V14.01,2013-06-18 10:36:00,
2013-06-18 06:41:00,67.7,66.8,29.97,NNE,33,0.0,3.0,97,0.00,,SCT,0.05,26.00,VWS V14.01,2013-06-18 10:41:00,
2013-06-18 06:46:00,67.8,66.9,29.97,NNE,33,3.0,5.0,97,0.00,,SCT,0.05,23.00,VWS V14.01,2013-06-18 10:46:00,
2013-06-18 06:51:00,67.7,66.8,29.96,NNE,30,2.0,5.0,97,0.00,,SCT,0.05,21.00,VWS V14.01,2013-06-18 10:51:00,
2013-06-18 06:55:00,67.7,66.8,29.97,NNE,30,1.0,1.0,97,0.00,,SCT,0.05,26.00,VWS V14.01,2013-06-18 10:55:00,
2013-06-18 07:00:00,67.7,66.8,29.97,NNE,30,0.0,2.0,97,0.00,,SCT,0.05,26.00,VWS V14.01,2013-06-18 11:00:00,
2013-06-18 07:05:00,67.6,66.7,29.97,NNE,30,2.0,3.0,97,0.00,,SCT,0.05,25.00,VWS V14.01,2013-06-18 11:05:00,
2013-06-18 07:10:00,67.7,66.8,29.97,NNE,30,0.0,3.0,97,0.00,,SCT,0.05,25.00,VWS V14.01,2013-06-18 11:10:00,
2013-06-18 07:15:00,67.7,66.8,29.97,NNE,30,1.0,3.0,97,0.00,,SCT,0.05,28.00,VWS V14.01,2013-06-18 11:15:00,
2013-06-18 07:20:00,67.7,66.8,29.97,NNE,23,4.0,5.0,97,0.00,,SCT,0.05,37.00,VWS V14.01,2013-06-18 11:20:00,
2013-06-18 07:25:00,68.0,67.1,29.97,NE,38,2.0,5.0,97,0.00,,SCT,0.05,39.00,VWS V14.01,2013-06-18 11:25:00,
2013-06-18 07:30:00,67.9,66.7,29.97,NNE,26,2.0,5.0,96,0.00,,SCT,0.05,44.00,VWS V14.01,2013-06-18 11:30:00,
2013-06-18 07:35:00,68.0,66.8,29.96,NNE,26,0.0,5.0,96,0.00,,SCT,0.05,56.00,VWS V14.01,2013-06-18 11:35:00,
2013-06-18 07:40:00,68.1,66.9,29.97,NNE,26,0.0,5.0,96,0.00,,SCT,0.05,58.00,VWS V14.01,2013-06-18 11:40:00,
2013-06-18 07:45:00,68.1,66.9,29.97,NNE,26,1.0,5.0,96,0.00,,SCT,0.05,67.00,VWS V14.01,2013-06-18 11:45:00,
2013-06-18 07:50:00,68.1,66.9,29.97,NNE,26,0.0,5.0,96,0.00,,SCT,0.05,84.00,VWS V14.01,2013-06-18 11:50:00,
2013-06-18 07:55:00,68.3,67.1,29.97,NNE,26,1.0,1.0,96,0.00,,SCT,0.05,84.00,VWS V14.01,2013-06-18 11:55:00,
2013-06-18 08:00:00,68.4,67.2,29.97,NNE,26,0.0,3.0,96,0.00,,SCT,0.05,84.00,VWS V14.01,2013-06-18 12:00:00,
2013-06-18 08:05:00,68.7,67.5,29.97,NNE,26,0.0,3.0,96,0.00,,SCT,0.05,121.00,VWS V14.01,2013-06-18 12:05:00,
2013-06-18 08:10:00,68.8,67.6,29.97,NNE,26,2.0,3.0,96,0.00,,SCT,0.05,134.00,VWS V14.01,2013-06-18 12:10:00,
2013-06-18 08:15:00,68.8,67.6,29.97,NNE,26,0.0,3.0,96,0.00,,SCT,0.05,102.00,VWS V14.01,2013-06-18 12:15:00,
2013-06-18 08:20:00,68.8,67.6,29.98,NNE,26,4.0,4.0,96,0.00,,SCT,0.05,93.00,VWS V14.01,2013-06-18 12:20:00,
2013-06-18 08:25:00,68.9,67.7,29.98,NNE,26,1.0,4.0,96,0.00,,SCT,0.05,79.00,VWS V14.01,2013-06-18 12:25:00,
2013-06-18 08:30:00,69.0,67.8,29.98,NNE,26,0.0,4.0,96,0.00,,SCT,0.05,97.00,VWS V14.01,2013-06-18 12:30:00,
2013-06-18 08:35:00,69.1,67.6,29.98,NNE,26,0.0,4.0,95,0.00,,SCT,0.05,77.00,VWS V14.01,2013-06-18 12:35:00,
2013-06-18 08:40:00,69.2,67.7,29.98,NNE,26,0.0,4.0,95,0.00,,SCT,0.05,77.00,VWS V14.01,2013-06-18 12:40:00,
2013-06-18 08:45:00,69.5,68.0,29.98,NNE,26,0.0,4.0,95,0.00,,SCT,0.05,69.00,VWS V14.01,2013-06-18 12:45:00,
2013-06-18 08:50:00,69.4,67.9,29.98,NNE,26,0.0,4.0,95,0.00,,SCT,0.05,69.00,VWS V14.01,2013-06-18 12:50:00,
2013-06-18 08:55:00,69.3,67.8,29.98,NNE,26,0.0,1.0,95,0.00,,SCT,0.05,79.00,VWS V14.01,2013-06-18 12:55:00,
2013-06-18 09:00:00,69.3,68.1,29.97,NNE,26,0.0,1.0,96,0.00,,SCT,0.05,98.00,VWS V14.01,2013-06-18 13:00:00,
2013-06-18 09:05:00,69.3,68.1,29.97,NNE,26,1.0,3.0,96,0.00,,SCT,0.05,107.00,VWS V14.01,2013-06-18 13:05:00,
2013-06-18 09:10:00,69.3,68.1,29.97,NNE,26,0.0,3.0,96,0.00,,SCT,0.05,128.00,VWS V14.01,2013-06-18 13:10:00,
2013-06-18 09:15:00,69.3,68.1,29.97,NNE,26,0.0,3.0,96,0.00,,SCT,0.05,137.00,VWS V14.01,2013-06-18 13:15:00,
2013-06-18 09:20:00,69.6,68.4,29.97,NNE,26,0.0,3.0,96,0.00,,SCT,0.05,158.00,VWS V14.01,2013-06-18 13:20:00,
2013-06-18 09:25:00,69.6,68.4,29.96,NNE,26,0.0,3.0,96,0.00,,SCT,0.05,190.00,VWS V14.01,2013-06-18 13:25:00,
2013-06-18 09:30:00,69.6,68.4,29.96,NNE,26,0.0,3.0,96,0.00,,SCT,0.05,190.00,VWS V14.01,2013-06-18 13:30:00,
2013-06-18 09:35:00,70.7,69.2,29.96,NNE,26,0.0,3.0,95,0.00,,SCT,0.05,336.00,VWS V14.01,2013-06-18 13:35:00,
2013-06-18 09:40:00,71.6,70.1,29.96,NNE,26,0.0,3.0,95,0.00,,SCT,0.05,360.00,VWS V14.01,2013-06-18 13:40:00,
2013-06-18 09:45:00,71.6,69.8,29.95,NNE,26,0.0,4.0,94,0.00,,SCT,0.05,322.00,VWS V14.01,2013-06-18 13:45:00,
2013-06-18 09:50:00,72.4,70.6,29.95,NNE,26,0.0,4.0,94,0.00,,SCT,0.05,229.00,VWS V14.01,2013-06-18 13:50:00,
2013-06-18 09:55:00,72.9,70.8,29.95,NNE,26,0.0,3.0,93,0.00,,SCT,0.05,199.00,VWS V14.01,2013-06-18 13:55:00,
2013-06-18 10:00:00,72.9,70.4,29.95,NNE,26,0.0,3.0,92,0.00,,SCT,0.05,200.00,VWS V14.01,2013-06-18 14:00:00,
2013-06-18 10:05:00,72.9,70.8,29.95,NNE,26,0.0,3.0,93,0.00,,SCT,0.05,190.00,VWS V14.01,2013-06-18 14:05:00,
2013-06-18 10:10:00,73.3,70.8,29.95,NNE,26,0.0,3.0,92,0.00,,SCT,0.05,188.00,VWS V14.01,2013-06-18 14:10:00,
2013-06-18 10:15:00,73.1,70.6,29.95,NNE,26,0.0,3.0,92,0.00,,SCT,0.05,202.00,VWS V14.01,2013-06-18 14:15:00,
2013-06-18 10:20:00,72.8,70.7,29.94,NNE,26,0.0,3.0,93,0.00,,SCT,0.05,206.00,VWS V14.01,2013-06-18 14:20:00,
2013-06-18 10:25:00,72.5,70.4,29.94,NNE,26,0.0,3.0,93,0.00,,SCT,0.05,192.00,VWS V14.01,2013-06-18 14:25:00,
2013-06-18 10:30:00,72.7,70.9,29.94,NNE,26,0.0,3.0,94,0.00,,SCT,0.05,183.00,VWS V14.01,2013-06-18 14:30:00,
2013-06-18 10:35:00,72.6,70.8,29.94,NNE,26,0.0,3.0,94,0.00,,SCT,0.05,195.00,VWS V14.01,2013-06-18 14:35:00,
2013-06-18 10:40:00,72.8,71.0,29.94,NNE,26,0.0,3.0,94,0.00,,SCT,0.05,195.00,VWS V14.01,2013-06-18 14:40:00,
2013-06-18 10:45:00,73.1,71.3,29.94,NNE,26,0.0,3.0,94,0.00,,SCT,0.05,176.00,VWS V14.01,2013-06-18 14:45:00,
2013-06-18 10:50:00,73.3,71.2,29.94,NNE,26,2.0,3.0,93,0.00,,SCT,0.05,174.00,VWS V14.01,2013-06-18 14:50:00,
2013-06-18 10:55:00,73.4,71.3,29.94,NNE,26,0.0,0.0,93,0.00,,SCT,0.05,181.00,VWS V14.01,2013-06-18 14:55:00,
2013-06-18 11:00:00,73.5,71.4,29.94,NNE,26,1.0,1.0,93,0.00,,SCT,0.05,183.00,VWS V14.01,2013-06-18 15:00:00,
2013-06-18 11:05:00,73.5,71.4,29.94,NNE,26,1.0,3.0,93,0.00,,SCT,0.05,146.00,VWS V14.01,2013-06-18 15:05:00,
2013-06-18 11:10:00,73.5,71.7,29.94,NNE,26,3.0,3.0,94,0.00,,SCT,0.05,120.00,VWS V14.01,2013-06-18 15:10:00,
2013-06-18 11:15:00,73.5,71.4,29.94,NNE,26,0.0,3.0,93,0.00,,SCT,0.05,135.00,VWS V14.01,2013-06-18 15:15:00,
2013-06-18 11:20:00,73.7,71.9,29.94,NNE,26,2.0,3.0,94,0.00,,SCT,0.05,151.00,VWS V14.01,2013-06-18 15:20:00,
2013-06-18 11:25:00,73.9,71.8,29.94,NNE,26,1.0,4.0,93,0.00,,SCT,0.05,144.00,VWS V14.01,2013-06-18 15:25:00,
2013-06-18 11:30:00,73.8,71.7,29.94,NNE,26,2.0,4.0,93,0.00,,SCT,0.05,121.00,VWS V14.01,2013-06-18 15:30:00,
2013-06-18 11:35:00,73.5,71.7,29.94,NNE,26,1.0,4.0,94,0.00,,SCT,0.05,141.00,VWS V14.01,2013-06-18 15:35:00,
2013-06-18 11:40:00,73.4,71.6,29.94,NNE,26,2.0,4.0,94,0.01,,SCT,0.06,162.00,VWS V14.01,2013-06-18 15:40:00,
2013-06-18 11:45:00,73.5,71.7,29.94,NNE,26,3.0,4.0,94,0.01,,SCT,0.06,158.00,VWS V14.01,2013-06-18 15:45:00,
2013-06-18 11:50:00,73.4,71.6,29.94,NNE,26,2.0,4.0,94,0.01,,SCT,0.06,171.00,VWS V14.01,2013-06-18 15:50:00,
2013-06-18 11:55:00,73.5,71.7,29.94,NNE,26,1.0,3.0,94,0.01,,SCT,0.06,179.00,VWS V14.01,2013-06-18 15:55:00,
2013-06-18 12:00:00,73.8,72.3,29.94,NNE,26,0.0,4.0,95,0.01,,SCT,0.06,132.00,VWS V14.01,2013-06-18 16:00:00,
2013-06-18 12:05:00,73.9,72.1,29.93,NNE,26,0.0,4.0,94,0.01,,SCT,0.06,84.00,VWS V14.01,2013-06-18 16:05:00,
2013-06-18 12:10:00,73.8,72.3,29.93,NNE,26,1.0,4.0,95,0.01,,SCT,0.06,58.00,VWS V14.01,2013-06-18 16:10:00,
2013-06-18 12:15:00,73.7,72.2,29.93,NNE,26,0.0,4.0,95,0.01,,SCT,0.06,37.00,VWS V14.01,2013-06-18 16:15:00,
2013-06-18 12:20:00,73.6,72.1,29.93,NNE,26,0.0,4.0,95,0.01,,SCT,0.06,21.00,VWS V14.01,2013-06-18 16:20:00,
2013-06-18 12:25:00,73.5,72.0,29.93,NNE,26,0.0,4.0,95,0.02,,SCT,0.07,25.00,VWS V14.01,2013-06-18 16:25:00,
2013-06-18 12:30:00,73.4,71.9,29.93,NNE,26,0.0,4.0,95,0.03,,SCT,0.08,32.00,VWS V14.01,2013-06-18 16:30:00,
2013-06-18 12:35:00,73.1,71.9,29.92,NNE,26,1.0,4.0,96,0.04,,SCT,0.09,39.00,VWS V14.01,2013-06-18 16:35:00,
2013-06-18 12:40:00,72.9,71.7,29.92,NNE,26,0.0,4.0,96,0.05,,SCT,0.10,39.00,VWS V14.01,2013-06-18 16:40:00,
2013-06-18 12:45:00,72.8,71.6,29.91,NNE,26,0.0,4.0,96,0.07,,SCT,0.12,74.00,VWS V14.01,2013-06-18 16:45:00,
2013-06-18 12:50:00,72.9,71.7,29.92,NNE,26,0.0,4.0,96,0.08,,SCT,0.13,67.00,VWS V14.01,2013-06-18 16:50:00,
2013-06-18 12:55:00,73.0,71.8,29.91,NNE,26,0.0,0.0,96,0.09,,SCT,0.15,95.00,VWS V14.01,2013-06-18 16:55:00,
2013-06-18 13:00:00,72.9,71.7,29.91,NNE,26,0.0,1.0,96,0.11,,SCT,0.17,100.00,VWS V14.01,2013-06-18 17:00:00,
2013-06-18 13:05:00,72.9,71.7,29.91,NNE,26,0.0,1.0,96,0.13,,SCT,0.19,105.00,VWS V14.01,2013-06-18 17:05:00,
2013-06-18 13:10:00,73.0,72.1,29.91,NNE,30,2.0,3.0,97,0.13,,SCT,0.19,109.00,VWS V14.01,2013-06-18 17:10:00,
2013-06-18 13:15:00,73.0,72.1,29.91,NNE,30,0.0,4.0,97,0.14,,SCT,0.20,81.00,VWS V14.01,2013-06-18 17:15:00,
2013-06-18 13:20:00,73.0,72.1,29.91,NNE,30,1.0,4.0,97,0.14,,SCT,0.20,53.00,VWS V14.01,2013-06-18 17:20:00,
2013-06-18 13:25:00,72.9,72.0,29.91,NNE,30,3.0,4.0,97,0.15,,SCT,0.21,35.00,VWS V14.01,2013-06-18 17:25:00,
2013-06-18 13:30:00,72.9,72.0,29.91,NNE,28,3.0,4.0,97,0.16,,SCT,0.22,32.00,VWS V14.01,2013-06-18 17:30:00,
2013-06-18 13:35:00,72.8,71.9,29.91,NNE,28,0.0,4.0,97,0.17,,SCT,0.23,28.00,VWS V14.01,2013-06-18 17:35:00,
2013-06-18 13:40:00,72.9,72.0,29.91,NNE,29,0.0,4.0,97,0.19,,SCT,0.25,28.00,VWS V14.01,2013-06-18 17:40:00,
2013-06-18 13:45:00,73.0,72.1,29.91,SSE,155,2.0,7.0,97,0.20,,SCT,0.26,46.00,VWS V14.01,2013-06-18 17:45:00,
2013-06-18 13:50:00,73.0,72.1,29.90,SSE,147,5.0,7.0,97,0.22,,SCT,0.28,51.00,VWS V14.01,2013-06-18 17:50:00,
2013-06-18 13:55:00,73.0,72.1,29.91,SE,128,5.0,6.0,97,0.15,,SCT,0.29,58.00,VWS V14.01,2013-06-18 17:55:00,
2013-06-18 14:00:00,72.9,72.0,29.91,ESE,112,5.0,6.0,97,0.16,,SCT,0.30,62.00,VWS V14.01,2013-06-18 18:00:00,
2013-06-18 14:05:00,72.8,71.9,29.91,SE,131,4.0,7.0,97,0.17,,SCT,0.31,67.00,VWS V14.01,2013-06-18 18:05:00,
2013-06-18 14:10:00,72.9,72.0,29.90,SE,144,5.0,7.0,97,0.18,,SCT,0.32,97.00,VWS V14.01,2013-06-18 18:10:00,
2013-06-18 14:15:00,73.0,72.1,29.90,SSE,167,5.0,8.0,97,0.18,,SCT,0.32,158.00,VWS V14.01,2013-06-18 18:15:00,
2013-06-18 14:20:00,73.1,72.2,29.90,SSE,155,2.0,8.0,97,0.19,,SCT,0.33,381.00,VWS V14.01,2013-06-18 18:20:00,
2013-06-18 14:25:00,73.3,72.4,29.90,SSE,150,4.0,13.0,97,0.20,,SCT,0.34,540.00,VWS V14.01,2013-06-18 18:25:00,
2013-06-18 14:30:00,73.6,72.4,29.90,South,174,11.0,13.0,96,0.21,,SCT,0.35,350.00,VWS V14.01,2013-06-18 18:30:00,
2013-06-18 14:35:00,73.6,72.4,29.90,South,172,6.0,13.0,96,0.22,,SCT,0.36,236.00,VWS V14.01,2013-06-18 18:35:00,
2013-06-18 14:40:00,73.5,72.0,29.90,SW,221,6.0,13.0,95,0.23,,SCT,0.37,285.00,VWS V14.01,2013-06-18 18:40:00,
2013-06-18 14:45:00,73.1,71.3,29.90,South,183,4.0,17.0,94,0.24,,SCT,0.38,237.00,VWS V14.01,2013-06-18 18:45:00,
2013-06-18 14:50:00,72.9,71.1,29.90,South,190,5.0,17.0,94,0.24,,SCT,0.38,199.00,VWS V14.01,2013-06-18 18:50:00,
2013-06-18 14:55:00,72.8,71.0,29.91,SSW,198,10.0,13.0,94,0.11,,SCT,0.39,165.00,VWS V14.01,2013-06-18 18:55:00,
2013-06-18 15:00:00,72.8,71.0,29.91,South,186,4.0,13.0,94,0.11,,SCT,0.39,279.00,VWS V14.01,2013-06-18 19:00:00,
2013-06-18 15:05:00,73.0,70.9,29.91,SSE,157,7.0,13.0,93,0.11,,SCT,0.39,174.00,VWS V14.01,2013-06-18 19:05:00,
2013-06-18 15:10:00,72.8,70.7,29.91,SSE,163,13.0,13.0,93,0.11,,SCT,0.39,227.00,VWS V14.01,2013-06-18 19:10:00,
2013-06-18 15:15:00,72.7,70.6,29.91,South,179,7.0,13.0,93,0.11,,SCT,0.39,301.00,VWS V14.01,2013-06-18 19:15:00,
2013-06-18 15:20:00,72.6,70.5,29.90,SW,225,5.0,13.0,93,0.11,,SCT,0.39,281.00,VWS V14.01,2013-06-18 19:20:00,
2013-06-18 15:25:00,72.6,70.8,29.91,SSE,157,2.0,13.0,94,0.11,,SCT,0.39,271.00,VWS V14.01,2013-06-18 19:25:00,
2013-06-18 15:30:00,72.5,70.7,29.91,SSW,192,7.0,13.0,94,0.12,,SCT,0.40,299.00,VWS V14.01,2013-06-18 19:30:00,
2013-06-18 15:35:00,72.5,70.7,29.91,SSW,194,4.0,13.0,94,0.12,,SCT,0.40,274.00,VWS V14.01,2013-06-18 19:35:00,
2013-06-18 15:40:00,72.7,71.2,29.91,SSW,196,5.0,13.0,95,0.12,,SCT,0.40,223.00,VWS V14.01,2013-06-18 19:40:00,
2013-06-18 15:45:00,72.9,71.1,29.91,South,188,1.0,13.0,94,0.12,,SCT,0.40,267.00,VWS V14.01,2013-06-18 19:45:00,
2013-06-18 15:50:00,73.0,71.2,29.91,SSW,197,3.0,13.0,94,0.12,,SCT,0.40,221.00,VWS V14.01,2013-06-18 19:50:00,
2013-06-18 15:55:00,72.9,71.1,29.91,SSW,209,5.0,6.0,94,0.02,,SCT,0.40,156.00,VWS V14.01,2013-06-18 19:55:00,
2013-06-18 16:00:00,72.9,71.1,29.91,SSW,195,8.0,10.0,94,0.02,,SCT,0.40,211.00,VWS V14.01,2013-06-18 20:00:00,
2013-06-18 16:05:00,72.9,70.8,29.91,SSW,202,4.0,13.0,93,0.02,,SCT,0.40,422.00,VWS V14.01,2013-06-18 20:05:00,
2013-06-18 16:10:00,73.0,70.5,29.91,SSW,199,4.0,13.0,92,0.02,,SCT,0.40,290.00,VWS V14.01,2013-06-18 20:10:00,
2013-06-18 16:15:00,73.2,70.7,29.91,South,182,4.0,13.0,92,0.02,,SCT,0.40,248.00,VWS V14.01,2013-06-18 20:15:00,
2013-06-18 16:20:00,73.0,70.5,29.91,SSW,211,8.0,14.0,92,0.02,,SCT,0.40,146.00,VWS V14.01,2013-06-18 20:20:00,
2013-06-18 16:25:00,73.0,70.5,29.91,South,185,3.0,14.0,92,0.02,,SCT,0.40,76.00,VWS V14.01,2013-06-18 20:25:00,
2013-06-18 16:30:00,72.8,70.3,29.91,South,191,6.0,14.0,92,0.02,,SCT,0.40,67.00,VWS V14.01,2013-06-18 20:30:00,
2013-06-18 16:35:00,72.6,69.5,29.91,South,171,9.0,14.0,90,0.02,,SCT,0.40,83.00,VWS V14.01,2013-06-18 20:35:00,
2013-06-18 16:40:00,72.3,68.9,29.91,SSW,203,7.0,14.0,89,0.02,,SCT,0.40,67.00,VWS V14.01,2013-06-18 20:40:00,
2013-06-18 16:45:00,72.0,68.6,29.91,SSW,213,12.0,15.0,89,0.02,,SCT,0.40,35.00,VWS V14.01,2013-06-18 20:45:00,
2013-06-18 16:50:00,71.5,68.4,29.92,South,180,4.0,15.0,90,0.03,,SCT,0.41,60.00,VWS V14.01,2013-06-18 20:50:00,
2013-06-18 16:55:00,71.2,68.8,29.92,SSW,199,2.0,5.0,92,0.01,,SCT,0.41,70.00,VWS V14.01,2013-06-18 20:55:00,
2013-06-18 17:00:00,70.9,68.5,29.92,SSW,210,1.0,7.0,92,0.02,,SCT,0.42,93.00,VWS V14.01,2013-06-18 21:00:00,
2013-06-18 17:05:00,70.8,68.4,29.92,SSW,203,0.0,7.0,92,0.02,,SCT,0.42,111.00,VWS V14.01,2013-06-18 21:05:00,
2013-06-18 17:10:00,70.9,67.8,29.92,SSW,194,1.0,7.0,90,0.02,,SCT,0.42,102.00,VWS V14.01,2013-06-18 21:10:00,
2013-06-18 17:15:00,71.1,68.3,29.92,SSW,194,0.0,7.0,91,0.02,,SCT,0.42,158.00,VWS V14.01,2013-06-18 21:15:00,
2013-06-18 17:20:00,71.3,67.9,29.91,SSW,194,0.0,7.0,89,0.02,,SCT,0.42,183.00,VWS V14.01,2013-06-18 21:20:00,
2013-06-18 17:25:00,71.5,68.4,29.91,SSW,194,0.0,7.0,90,0.02,,SCT,0.42,202.00,VWS V14.01,2013-06-18 21:25:00,
2013-06-18 17:30:00,71.6,68.5,29.91,SSW,194,0.0,7.0,90,0.02,,SCT,0.42,209.00,VWS V14.01,2013-06-18 21:30:00,
2013-06-18 17:35:00,71.9,68.5,29.91,South,185,0.0,7.0,89,0.02,,SCT,0.42,264.00,VWS V14.01,2013-06-18 21:35:00,
2013-06-18 17:40:00,72.2,69.4,29.90,South,188,0.0,7.0,91,0.02,,SCT,0.42,190.00,VWS V14.01,2013-06-18 21:40:00,
2013-06-18 17:45:00,72.4,68.7,29.90,South,188,0.0,7.0,88,0.02,,SCT,0.42,192.00,VWS V14.01,2013-06-18 21:45:00,
2013-06-18 17:50:00,72.6,68.8,29.90,SSE,166,1.0,7.0,88,0.02,,SCT,0.42,139.00,VWS V14.01,2013-06-18 21:50:00,
2013-06-18 17:55:00,72.3,68.6,29.90,East,94,0.0,1.0,88,0.01,,SCT,0.42,255.00,VWS V14.01,2013-06-18 21:55:00,
2013-06-18 18:00:00,72.6,68.8,29.90,East,94,0.0,1.0,88,0.01,,SCT,0.42,301.00,VWS V14.01,2013-06-18 22:00:00,
2013-06-18 18:05:00,72.8,69.0,29.90,East,94,0.0,1.0,88,0.01,,SCT,0.42,221.00,VWS V14.01,2013-06-18 22:05:00,
2013-06-18 18:10:00,72.7,68.6,29.90,East,94,0.0,1.0,87,0.01,,SCT,0.42,176.00,VWS V14.01,2013-06-18 22:10:00,
2013-06-18 18:15:00,72.8,69.0,29.89,East,94,0.0,1.0,88,0.01,,SCT,0.42,142.00,VWS V14.01,2013-06-18 22:15:00,
2013-06-18 18:20:00,72.5,69.1,29.89,East,94,1.0,2.0,89,0.01,,SCT,0.42,190.00,VWS V14.01,2013-06-18 22:20:00,
2013-06-18 18:25:00,72.4,69.3,29.89,NW,314,0.0,3.0,90,0.01,,SCT,0.42,269.00,VWS V14.01,2013-06-18 22:25:00,
2013-06-18 18:30:00,72.8,69.7,29.89,NW,314,0.0,3.0,90,0.01,,SCT,0.42,427.00,VWS V14.01,2013-06-18 22:30:00,
2013-06-18 18:35:00,73.5,69.7,29.89,NW,314,0.0,3.0,88,0.01,,SCT,0.42,360.00,VWS V14.01,2013-06-18 22:35:00,
2013-06-18 18:40:00,73.9,69.8,29.89,NW,314,1.0,3.0,87,0.01,,SCT,0.42,297.00,VWS V14.01,2013-06-18 22:40:00,
2013-06-18 18:45:00,74.1,69.7,29.90,NW,314,0.0,3.0,86,0.01,,SCT,0.42,105.00,VWS V14.01,2013-06-18 22:45:00,
2013-06-18 18:50:00,73.9,69.8,29.90,NW,314,1.0,3.0,87,0.01,,SCT,0.42,258.00,VWS V14.01,2013-06-18 22:50:00,
2013-06-18 18:55:00,73.8,69.7,29.90,ENE,64,1.0,2.0,87,0.00,,SCT,0.42,207.00,VWS V14.01,2013-06-18 22:55:00,
2013-06-18 19:00:00,73.8,69.7,29.90,ENE,63,2.0,3.0,87,0.00,,SCT,0.42,195.00,VWS V14.01,2013-06-18 23:00:00,
2013-06-18 19:05:00,73.9,70.1,29.90,ENE,63,2.0,3.0,88,0.00,,SCT,0.42,171.00,VWS V14.01,2013-06-18 23:05:00,
2013-06-18 19:10:00,74.1,70.3,29.90,ENE,63,1.0,3.0,88,0.00,,SCT,0.42,155.00,VWS V14.01,2013-06-18 23:10:00,
2013-06-18 19:15:00,74.1,69.7,29.90,ENE,63,0.0,3.0,86,0.00,,SCT,0.42,135.00,VWS V14.01,2013-06-18 23:15:00,
2013-06-18 19:20:00,74.2,70.1,29.91,ENE,63,0.0,3.0,87,0.00,,SCT,0.42,118.00,VWS V14.01,2013-06-18 23:20:00,
2013-06-18 19:25:00,74.2,70.1,29.90,ENE,63,0.0,3.0,87,0.00,,SCT,0.42,104.00,VWS V14.01,2013-06-18 23:25:00,
2013-06-18 19:30:00,74.2,70.1,29.91,ENE,63,0.0,3.0,87,0.00,,SCT,0.42,90.00,VWS V14.01,2013-06-18 23:30:00,
2013-06-18 19:35:00,74.2,70.4,29.91,ENE,63,0.0,3.0,88,0.00,,SCT,0.42,76.00,VWS V14.01,2013-06-18 23:35:00,
2013-06-18 19:40:00,73.8,70.0,29.90,ENE,63,1.0,3.0,88,0.00,,SCT,0.42,63.00,VWS V14.01,2013-06-18 23:40:00,
2013-06-18 19:45:00,73.5,70.4,29.90,NW,319,0.0,4.0,90,0.00,,SCT,0.42,53.00,VWS V14.01,2013-06-18 23:45:00,
2013-06-18 19:50:00,73.3,69.9,29.91,NW,319,0.0,4.0,89,0.00,,SCT,0.42,44.00,VWS V14.01,2013-06-18 23:50:00,
2013-06-18 19:55:00,73.5,70.4,29.91,NW,319,0.0,2.0,90,0.00,,SCT,0.42,33.00,VWS V14.01,2013-06-18 23:55:00,
2013-06-18 20:00:00,73.4,70.3,29.91,NW,319,0.0,2.0,90,0.00,,SCT,0.42,26.00,VWS V14.01,2013-06-19 00:00:00,
2013-06-18 20:05:00,73.5,69.7,29.92,WSW,238,1.0,4.0,88,0.00,,SCT,0.42,21.00,VWS V14.01,2013-06-19 00:05:00,
2013-06-18 20:10:00,73.5,69.1,29.92,WSW,237,2.0,4.0,86,0.00,,SCT,0.42,19.00,VWS V14.01,2013-06-19 00:10:00,
2013-06-18 20:15:00,73.5,69.1,29.92,SSW,201,0.0,5.0,86,0.00,,SCT,0.42,14.00,VWS V14.01,2013-06-19 00:15:00,
2013-06-18 20:20:00,73.1,69.7,29.92,SSW,201,0.0,5.0,89,0.00,,SCT,0.42,14.00,VWS V14.01,2013-06-19 00:20:00,
2013-06-18 20:25:00,72.6,70.2,29.92,SSW,201,0.0,5.0,92,0.00,,SCT,0.42,11.00,VWS V14.01,2013-06-19 00:25:00,
2013-06-18 20:30:00,72.4,69.9,29.93,SSW,201,0.0,5.0,92,0.00,,SCT,0.42,7.00,VWS V14.01,2013-06-19 00:30:00,
2013-06-18 20:35:00,72.2,70.1,29.93,SSW,201,0.0,5.0,93,0.00,,SCT,0.42,0.00,VWS V14.01,2013-06-19 00:35:00,
2013-06-18 20:40:00,71.8,69.7,29.94,SSW,201,0.0,5.0,93,0.00,,SCT,0.42,0.00,VWS V14.01,2013-06-19 00:40:00,
2013-06-18 20:45:00,71.6,69.8,29.94,SSW,201,0.0,5.0,94,0.00,,SCT,0.42,0.00,VWS V14.01,2013-06-19 00:45:00,
2013-06-18 20:50:00,71.6,69.8,29.94,SSW,201,0.0,5.0,94,0.00,,SCT,0.42,0.00,VWS V14.01,2013-06-19 00:50:00,
2013-06-18 20:55:00,71.2,69.4,29.94,SW,216,2.0,3.0,94,0.00,,SCT,0.42,0.00,VWS V14.01,2013-06-19 00:55:00,
2013-06-18 21:00:00,70.8,69.3,29.93,WNW,285,3.0,4.0,95,0.00,,SCT,0.42,0.00,VWS V14.01,2013-06-19 01:00:00,
2013-06-18 21:05:00,70.6,69.1,29.94,WNW,285,0.0,4.0,95,0.00,,SCT,0.42,0.00,VWS V14.01,2013-06-19 01:05:00,
2013-06-18 21:10:00,70.6,69.1,29.94,WNW,285,0.0,4.0,95,0.00,,SCT,0.42,0.00,VWS V14.01,2013-06-19 01:10:00,
2013-06-18 21:15:00,70.5,69.0,29.94,WNW,285,0.0,4.0,95,0.00,,SCT,0.42,0.00,VWS V14.01,2013-06-19 01:15:00,
2013-06-18 21:20:00,70.5,69.0,29.94,WNW,285,0.0,4.0,95,0.00,,SCT,0.42,0.00,VWS V14.01,2013-06-19 01:20:00,
2013-06-18 21:25:00,70.7,68.9,29.94,WNW,285,0.0,4.0,94,0.00,,SCT,0.42,0.00,VWS V14.01,2013-06-19 01:25:00,
2013-06-18 21:30:00,70.2,68.7,29.95,WNW,285,0.0,4.0,95,0.00,,SCT,0.42,0.00,VWS V14.01,2013-06-19 01:30:00,
2013-06-18 21:35:00,69.8,68.3,29.95,WNW,285,0.0,4.0,95,0.00,,SCT,0.42,0.00,VWS V14.01,2013-06-19 01:35:00,
2013-06-18 21:40:00,69.7,68.2,29.95,WNW,285,0.0,4.0,95,0.00,,SCT,0.42,0.00,VWS V14.01,2013-06-19 01:40:00,
2013-06-18 21:45:00,69.8,68.3,29.95,WNW,285,0.0,4.0,95,0.00,,SCT,0.42,0.00,VWS V14.01,2013-06-19 01:45:00,
2013-06-18 21:50:00,69.8,68.6,29.95,WNW,285,0.0,4.0,96,0.00,,SCT,0.42,0.00,VWS V14.01,2013-06-19 01:50:00,
2013-06-18 21:55:00,69.8,68.6,29.95,WNW,286,1.0,2.0,96,0.00,,SCT,0.42,0.00,VWS V14.01,2013-06-19 01:55:00,
2013-06-18 22:00:00,69.7,68.5,29.96,WNW,286,0.0,2.0,96,0.00,,SCT,0.42,0.00,VWS V14.01,2013-06-19 02:00:00,
2013-06-18 22:05:00,69.1,67.9,29.96,WNW,286,0.0,2.0,96,0.00,,SCT,0.42,0.00,VWS V14.01,2013-06-19 02:05:00,
2013-06-18 22:10:00,69.0,67.8,29.96,WNW,286,2.0,4.0,96,0.00,,SCT,0.42,0.00,VWS V14.01,2013-06-19 02:10:00,
2013-06-18 22:15:00,68.4,67.2,29.96,WNW,292,3.0,4.0,96,0.00,,SCT,0.42,0.00,VWS V14.01,2013-06-19 02:15:00,
2013-06-18 22:20:00,68.1,66.9,29.97,WNW,298,3.0,4.0,96,0.00,,SCT,0.42,0.00,VWS V14.01,2013-06-19 02:20:00,
2013-06-18 22:25:00,68.3,67.1,29.97,WNW,299,2.0,4.0,96,0.00,,SCT,0.42,0.00,VWS V14.01,2013-06-19 02:25:00,
2013-06-18 22:30:00,68.7,67.5,29.98,WNW,299,0.0,4.0,96,0.00,,SCT,0.42,0.00,VWS V14.01,2013-06-19 02:30:00,
2013-06-18 22:35:00,68.8,67.3,29.98,WNW,299,0.0,4.0,95,0.00,,SCT,0.42,0.00,VWS V14.01,2013-06-19 02:35:00,
2013-06-18 22:40:00,68.8,67.3,29.98,WNW,299,0.0,4.0,95,0.00,,SCT,0.42,0.00,VWS V14.01,2013-06-19 02:40:00,
2013-06-18 22:45:00,68.6,67.1,29.98,WNW,299,0.0,4.0,95,0.00,,SCT,0.42,0.00,VWS V14.01,2013-06-19 02:45:00,
2013-06-18 22:50:00,68.3,67.1,29.98,WNW,299,2.0,4.0,96,0.00,,SCT,0.42,0.00,VWS V14.01,2013-06-19 02:50:00,
2013-06-18 22:55:00,68.5,67.3,29.98,WNW,299,2.0,3.0,96,0.00,,SCT,0.42,0.00,VWS V14.01,2013-06-19 02:55:00,
2013-06-18 23:00:00,68.5,67.3,29.98,NW,304,1.0,3.0,96,0.00,,SCT,0.42,0.00,VWS V14.01,2013-06-19 03:00:00,
2013-06-18 23:05:00,68.5,67.3,29.98,NW,305,1.0,3.0,96,0.00,,SCT,0.42,0.00,VWS V14.01,2013-06-19 03:05:00,
2013-06-18 23:10:00,68.2,67.0,29.98,NW,305,0.0,3.0,96,0.00,,SCT,0.42,0.00,VWS V14.01,2013-06-19 03:10:00,
2013-06-18 23:15:00,67.9,66.7,29.99,NW,305,1.0,3.0,96,0.00,,SCT,0.42,0.00,VWS V14.01,2013-06-19 03:15:00,
2013-06-18 23:19:00,68.2,67.3,29.99,NW,305,2.0,3.0,97,0.00,,SCT,0.42,0.00,VWS V14.01,2013-06-19 03:19:00,
2013-06-18 23:24:00,68.2,67.0,29.99,NW,306,3.0,4.0,96,0.00,,SCT,0.42,0.00,VWS V14.01,2013-06-19 03:24:00,
2013-06-18 23:29:00,68.2,67.3,29.99,NW,308,1.0,4.0,97,0.00,,SCT,0.42,0.00,VWS V14.01,2013-06-19 03:29:00,
2013-06-18 23:34:00,68.3,67.4,29.99,NW,308,1.0,4.0,97,0.00,,SCT,0.42,0.00,VWS V14.01,2013-06-19 03:34:00,
2013-06-18 23:39:00,68.2,67.3,29.99,NW,308,2.0,4.0,97,0.00,,SCT,0.42,0.00,VWS V14.01,2013-06-19 03:39:00,
2013-06-18 23:44:00,68.7,67.8,29.99,NW,308,0.0,4.0,97,0.00,,SCT,0.42,0.00,VWS V14.01,2013-06-19 03:44:00,
2013-06-18 23:49:00,68.6,67.7,29.99,NW,308,0.0,4.0,97,0.00,,SCT,0.42,0.00,VWS V14.01,2013-06-19 03:49:00,
2013-06-18 23:54:00,68.3,67.4,29.99,NW,308,0.0,1.0,97,0.00,,SCT,0.00,0.00,VWS V14.01,2013-06-19 03:54:00,
2013-06-18 23:59:00,68.4,67.5,29.99,NW,308,0.0,1.0,97,0.00,,SCT,0.00,0.00,VWS V14.01,2013-06-19 03:59:00,